createdAt,value
2023-05-06T00:01:43.808Z,52.00
2023-05-06T00:11:51.020Z,52.20
2023-05-06T00:22:00.146Z,52.20
2023-05-06T00:32:10.116Z,52.30
2023-05-06T00:42:18.828Z,52.30
2023-05-06T00:52:26.469Z,52.30
2023-05-06T01:02:46.582Z,52.20
2023-05-06T01:13:01.293Z,52.20
2023-05-06T01:23:15.094Z,52.20
2023-05-06T01:33:30.315Z,52.30
2023-05-06T01:43:44.538Z,52.30
2023-05-06T01:53:51.744Z,52.30
2023-05-06T02:04:00.545Z,52.30
2023-05-06T02:14:08.076Z,52.30
2023-05-06T02:24:18.268Z,52.30
2023-05-06T02:34:25.327Z,52.30
2023-05-06T02:44:34.019Z,52.30
2023-05-06T02:54:42.329Z,52.30
2023-05-06T03:04:51.086Z,52.30
2023-05-06T03:14:58.290Z,52.30
2023-05-06T03:25:08.450Z,52.10
2023-05-06T03:35:18.670Z,52.20
2023-05-06T03:45:31.663Z,52.10
2023-05-06T03:55:41.609Z,52.10
2023-05-06T04:05:55.489Z,51.90
2023-05-06T04:16:09.864Z,51.80
2023-05-06T04:26:31.535Z,51.80
2023-05-06T04:36:51.119Z,51.70
2023-05-06T04:47:09.897Z,51.60
2023-05-06T04:57:19.729Z,51.80
2023-05-06T05:07:31.728Z,51.90
2023-05-06T05:17:43.032Z,51.70
2023-05-06T05:27:52.422Z,51.90
2023-05-06T05:37:59.553Z,51.90
2023-05-06T05:48:12.290Z,51.90
2023-05-06T05:58:20.346Z,52.00
2023-05-06T06:08:34.127Z,52.00
2023-05-06T06:18:41.873Z,52.00
2023-05-06T06:28:52.238Z,51.80
2023-05-06T06:38:59.810Z,51.80
2023-05-06T06:49:12.044Z,51.90
2023-05-06T06:59:19.333Z,51.70
2023-05-06T07:09:28.436Z,51.90
2023-05-06T07:19:36.584Z,51.70
2023-05-06T07:29:45.850Z,51.80
2023-05-06T07:39:59.306Z,51.90
2023-05-06T07:50:08.491Z,51.80
2023-05-06T08:00:16.337Z,51.80
2023-05-06T08:10:25.272Z,51.90
2023-05-06T08:20:32.263Z,51.80
2023-05-06T08:30:52.170Z,52.00
2023-05-06T08:41:01.477Z,51.70
2023-05-06T08:51:30.144Z,51.70
2023-05-06T09:01:45.441Z,51.90
2023-05-06T09:11:58.449Z,51.70
2023-05-06T09:22:06.295Z,51.70
2023-05-06T09:32:52.464Z,51.70
2023-05-06T09:43:08.609Z,51.70
2023-05-06T09:53:19.370Z,51.40
2023-05-06T10:03:30.026Z,51.30
2023-05-06T10:14:02.466Z,51.20
2023-05-06T10:24:19.585Z,51.40
2023-05-06T10:34:33.211Z,51.60
2023-05-06T10:45:06.405Z,51.40
2023-05-06T10:56:10.180Z,51.40
2023-05-06T11:17:48.218Z,51.40
2023-05-06T11:28:02.399Z,51.20
2023-05-06T11:38:10.705Z,51.20
2023-05-06T11:48:35.237Z,51.20
2023-05-06T11:59:08.018Z,51.20
2023-05-06T12:09:43.165Z,51.10
2023-05-06T12:20:49.094Z,51.00
2023-05-06T12:31:09.969Z,51.00
2023-05-06T12:41:59.252Z,50.80
2023-05-06T12:52:23.301Z,50.70
2023-05-06T13:02:33.946Z,50.70
2023-05-06T13:12:48.328Z,50.80
2023-05-06T13:22:57.655Z,50.90
2023-05-06T13:33:13.496Z,50.90
2023-05-06T13:43:23.982Z,50.80
2023-05-06T13:53:36.570Z,50.40
2023-05-06T14:03:43.490Z,50.70
2023-05-06T14:13:52.126Z,50.80
2023-05-06T14:23:59.048Z,50.80
2023-05-06T14:34:08.188Z,50.90
2023-05-06T14:44:16.264Z,50.90
2023-05-06T14:54:26.811Z,50.60
2023-05-06T15:04:39.982Z,50.40
2023-05-06T15:14:48.675Z,50.30
2023-05-06T15:24:55.629Z,50.50
2023-05-06T15:35:05.699Z,50.60
2023-05-06T15:45:13.889Z,51.10
2023-05-06T15:55:25.127Z,50.50
2023-05-06T16:05:49.076Z,50.70
2023-05-06T16:15:59.287Z,50.80
2023-05-06T16:26:12.124Z,50.80
2023-05-06T16:36:20.939Z,50.80
2023-05-06T16:46:33.680Z,50.80
2023-05-06T16:56:51.493Z,50.70
2023-05-06T17:07:01.411Z,50.80
2023-05-06T17:17:10.382Z,50.80
2023-05-06T17:27:19.422Z,50.80
2023-05-06T17:37:28.094Z,50.60
2023-05-06T17:47:35.244Z,50.50
2023-05-06T17:57:43.915Z,50.30
2023-05-06T18:07:50.906Z,50.40
2023-05-06T18:18:00.750Z,50.40
2023-05-06T18:28:11.196Z,50.40
2023-05-06T18:38:20.911Z,50.40
2023-05-06T18:48:31.769Z,50.20
2023-05-06T18:58:41.707Z,50.20
2023-05-06T19:08:49.285Z,50.20
2023-05-06T19:18:58.521Z,50.00
2023-05-06T19:29:05.689Z,49.80
2023-05-06T19:39:14.651Z,49.90
2023-05-06T19:49:21.626Z,49.70
2023-05-06T19:59:30.466Z,49.50
2023-05-06T20:09:37.439Z,49.60
2023-05-06T20:19:47.670Z,49.50
2023-05-06T20:29:54.552Z,49.40
2023-05-06T20:40:03.260Z,49.30
2023-05-06T20:50:17.631Z,49.20
2023-05-06T21:00:26.951Z,49.10
2023-05-06T21:10:34.621Z,49.10
2023-05-06T21:20:43.821Z,48.90
2023-05-06T21:30:50.948Z,48.50
2023-05-06T21:40:59.687Z,47.80
2023-05-06T21:51:07.875Z,47.70
2023-05-06T22:01:16.519Z,47.70
2023-05-06T22:11:24.765Z,48.30
2023-05-06T22:21:34.979Z,47.80
2023-05-06T22:31:44.843Z,47.70
2023-05-06T22:41:55.782Z,47.90
2023-05-06T22:52:02.889Z,48.20
2023-05-06T23:02:11.590Z,48.40
2023-05-06T23:12:20.928Z,48.50
2023-05-06T23:22:30.112Z,48.80
2023-05-06T23:32:44.038Z,48.70
2023-05-06T23:43:01.684Z,48.70
2023-05-06T23:53:12.831Z,48.50
